createdAt,value
2017-11-30T00:01:23.746Z,4.20
2017-11-30T00:03:56.278Z,3.17
2017-11-30T00:06:28.835Z,3.27
2017-11-30T00:09:01.365Z,3.70
2017-11-30T00:11:33.874Z,3.97
2017-11-30T00:14:07.162Z,3.53
2017-11-30T00:16:39.627Z,3.90
2017-11-30T00:19:12.125Z,3.17
2017-11-30T00:21:44.587Z,3.63
2017-11-30T00:24:17.153Z,4.03
2017-11-30T00:26:49.740Z,3.30
2017-11-30T00:29:22.290Z,3.93
2017-11-30T00:31:54.826Z,4.00
2017-11-30T00:34:27.367Z,3.60
2017-11-30T00:36:59.902Z,3.17
2017-11-30T00:39:32.385Z,3.10
2017-11-30T00:42:05.664Z,3.70
2017-11-30T00:44:38.961Z,4.27
2017-11-30T00:47:11.452Z,5.00
2017-11-30T00:49:44.066Z,4.37
2017-11-30T00:52:17.305Z,4.30
2017-11-30T00:54:49.879Z,3.60
2017-11-30T00:57:22.445Z,5.03
2017-11-30T00:59:55.808Z,3.33
2017-11-30T01:02:28.359Z,3.20
2017-11-30T01:05:00.962Z,3.60
2017-11-30T01:07:33.438Z,3.37
2017-11-30T01:10:05.990Z,3.00
2017-11-30T01:12:39.247Z,3.27
2017-11-30T01:15:11.795Z,3.20
2017-11-30T01:17:44.242Z,3.37
2017-11-30T01:20:16.811Z,3.13
2017-11-30T01:22:49.344Z,3.90
2017-11-30T01:25:21.958Z,3.50
2017-11-30T01:27:54.532Z,3.63
2017-11-30T01:30:27.906Z,3.57
2017-11-30T01:33:00.379Z,3.10
2017-11-30T01:35:32.785Z,3.20
2017-11-30T01:38:05.327Z,3.20
2017-11-30T01:40:38.622Z,7.90
2017-11-30T01:43:11.055Z,3.10
2017-11-30T01:45:44.369Z,3.03
2017-11-30T01:48:16.862Z,3.60
2017-11-30T01:50:49.476Z,3.00
2017-11-30T01:53:22.073Z,3.83
2017-11-30T01:55:54.615Z,3.00
2017-11-30T01:58:27.180Z,3.17
2017-11-30T02:01:00.546Z,3.23
2017-11-30T02:03:33.194Z,3.60
2017-11-30T02:06:05.629Z,3.50
2017-11-30T02:08:38.034Z,3.50
2017-11-30T02:11:10.528Z,3.00
2017-11-30T02:13:43.809Z,3.63
2017-11-30T02:16:16.322Z,2.90
2017-11-30T02:18:48.891Z,3.00
2017-11-30T02:21:21.459Z,3.33
2017-11-30T02:23:54.740Z,3.13
2017-11-30T02:26:27.285Z,2.90
2017-11-30T02:28:59.750Z,4.17
2017-11-30T02:31:32.272Z,2.90
2017-11-30T02:34:04.752Z,2.67
2017-11-30T02:36:37.175Z,3.20
2017-11-30T02:39:09.708Z,2.57
2017-11-30T02:41:42.365Z,3.00
2017-11-30T02:44:14.853Z,2.90
2017-11-30T02:46:48.224Z,2.70
2017-11-30T02:49:20.722Z,3.20
2017-11-30T02:51:53.259Z,2.80
2017-11-30T02:54:25.898Z,2.30
2017-11-30T02:56:58.391Z,2.90
2017-11-30T02:59:30.914Z,3.37
2017-11-30T03:02:03.522Z,2.90
2017-11-30T03:04:36.058Z,2.90
2017-11-30T03:07:08.527Z,2.73
2017-11-30T03:09:41.089Z,2.83
2017-11-30T03:12:13.650Z,4.73
2017-11-30T03:14:46.131Z,3.13
2017-11-30T03:17:19.442Z,2.93
2017-11-30T03:19:51.944Z,2.93
2017-11-30T03:22:24.510Z,2.83
2017-11-30T03:24:57.775Z,2.43
2017-11-30T03:27:30.347Z,2.60
2017-11-30T03:30:02.848Z,2.37
2017-11-30T03:32:35.316Z,2.80
2017-11-30T03:35:07.857Z,2.87
2017-11-30T03:37:40.259Z,2.60
2017-11-30T03:40:12.870Z,2.57
2017-11-30T03:42:45.389Z,2.67
2017-11-30T03:45:18.091Z,2.60
2017-11-30T03:47:50.565Z,2.67
2017-11-30T03:50:23.048Z,2.10
2017-11-30T03:52:55.530Z,2.90
2017-11-30T03:55:28.117Z,2.97
2017-11-30T03:58:00.662Z,2.73
2017-11-30T04:00:33.238Z,2.40
2017-11-30T04:03:05.868Z,2.87
2017-11-30T04:05:39.077Z,2.80
2017-11-30T04:08:11.661Z,2.33
2017-11-30T04:10:44.951Z,2.53
2017-11-30T04:13:17.454Z,2.57
2017-11-30T04:15:50.054Z,2.40
2017-11-30T04:18:22.580Z,2.33
2017-11-30T04:20:55.969Z,2.73
2017-11-30T04:23:28.573Z,2.37
2017-11-30T04:26:01.102Z,2.63
2017-11-30T04:28:33.705Z,2.47
2017-11-30T04:31:06.174Z,2.80
2017-11-30T04:33:38.670Z,2.50
2017-11-30T04:36:11.202Z,2.40
2017-11-30T04:38:43.717Z,2.23
2017-11-30T04:41:16.303Z,2.20
2017-11-30T04:43:48.830Z,2.73
2017-11-30T04:46:22.139Z,2.50
2017-11-30T04:48:55.448Z,2.23
2017-11-30T04:51:27.975Z,2.47
2017-11-30T04:54:00.539Z,2.40
2017-11-30T04:56:33.039Z,2.67
2017-11-30T04:59:06.375Z,2.03
2017-11-30T05:01:39.542Z,2.30
2017-11-30T05:04:12.855Z,2.47
2017-11-30T05:06:46.110Z,2.40
2017-11-30T05:09:19.423Z,2.57
2017-11-30T05:11:52.697Z,3.50
2017-11-30T05:14:25.230Z,2.20
2017-11-30T05:16:57.795Z,2.27
2017-11-30T05:19:30.345Z,2.00
2017-11-30T05:22:02.815Z,2.27
2017-11-30T05:24:35.413Z,2.03
2017-11-30T05:27:07.958Z,1.93
2017-11-30T05:29:40.602Z,2.30
2017-11-30T05:32:14.028Z,2.40
2017-11-30T05:34:46.543Z,1.97
2017-11-30T05:37:19.884Z,2.53
2017-11-30T05:39:52.406Z,2.50
2017-11-30T05:42:24.956Z,2.87
2017-11-30T05:44:57.326Z,2.40
2017-11-30T05:47:30.718Z,1.70
2017-11-30T05:50:03.180Z,2.03
2017-11-30T05:52:35.562Z,2.50
2017-11-30T05:55:08.111Z,2.77
2017-11-30T05:57:40.562Z,2.13
2017-11-30T06:00:13.097Z,2.20
2017-11-30T06:02:45.675Z,2.13
2017-11-30T06:05:18.212Z,1.90
2017-11-30T06:07:51.603Z,2.13
2017-11-30T06:10:24.182Z,2.20
2017-11-30T06:12:56.696Z,1.93
2017-11-30T06:15:29.107Z,2.20
2017-11-30T06:18:01.620Z,1.90
2017-11-30T06:20:34.176Z,1.70
2017-11-30T06:23:06.671Z,2.30
2017-11-30T06:25:39.192Z,1.97
2017-11-30T06:28:11.768Z,1.90
2017-11-30T06:30:45.125Z,2.33
2017-11-30T06:33:18.389Z,2.00
2017-11-30T06:35:50.930Z,2.07
2017-11-30T06:38:24.321Z,2.10
2017-11-30T06:40:56.762Z,2.13
2017-11-30T06:43:29.334Z,2.23
2017-11-30T06:46:01.843Z,1.73
2017-11-30T06:48:34.362Z,2.13
2017-11-30T06:51:06.947Z,1.87
2017-11-30T06:53:40.244Z,1.63
2017-11-30T06:56:14.256Z,1.97
2017-11-30T06:58:46.811Z,1.60
2017-11-30T07:01:19.276Z,2.03
2017-11-30T07:03:51.870Z,1.83
2017-11-30T07:06:24.477Z,2.10
2017-11-30T07:08:56.882Z,1.70
2017-11-30T07:11:30.223Z,2.00
2017-11-30T07:14:03.496Z,2.00
2017-11-30T07:16:36.786Z,1.63
2017-11-30T07:19:09.300Z,1.70
2017-11-30T07:21:41.891Z,1.70
2017-11-30T07:24:14.392Z,1.57
2017-11-30T07:26:46.896Z,2.93
2017-11-30T07:29:20.174Z,1.40
2017-11-30T07:31:52.685Z,2.00
2017-11-30T07:34:25.098Z,1.63
2017-11-30T07:36:57.660Z,1.37
2017-11-30T07:39:30.135Z,1.50
2017-11-30T07:42:02.694Z,2.10
2017-11-30T07:44:35.216Z,1.60
2017-11-30T07:47:07.851Z,1.90
2017-11-30T07:49:40.414Z,2.60
2017-11-30T07:52:12.959Z,1.13
2017-11-30T07:54:45.475Z,1.87
2017-11-30T07:57:17.961Z,1.80
2017-11-30T07:59:50.599Z,2.27
2017-11-30T08:02:23.678Z,1.80
2017-11-30T08:04:56.952Z,1.70
2017-11-30T08:07:29.454Z,1.93
2017-11-30T08:10:01.956Z,1.90
2017-11-30T08:12:34.410Z,1.70
2017-11-30T08:15:06.961Z,1.67
2017-11-30T08:17:39.530Z,2.23
2017-11-30T08:20:11.946Z,1.90
2017-11-30T08:22:44.596Z,1.33
2017-11-30T08:25:17.099Z,1.90
2017-11-30T08:27:49.558Z,1.63
2017-11-30T08:30:22.065Z,1.33
2017-11-30T08:32:55.405Z,1.90
2017-11-30T08:35:27.899Z,1.03
2017-11-30T08:38:00.426Z,1.47
2017-11-30T08:40:32.827Z,2.00
2017-11-30T08:43:05.326Z,1.50
2017-11-30T08:45:37.904Z,1.43
2017-11-30T08:48:10.322Z,1.60
2017-11-30T08:50:42.900Z,1.30
2017-11-30T08:53:16.203Z,1.47
2017-11-30T08:55:48.690Z,1.63
2017-11-30T08:58:21.206Z,1.83
2017-11-30T09:00:53.704Z,1.50
2017-11-30T09:03:26.077Z,1.60
2017-11-30T09:05:58.642Z,1.20
2017-11-30T09:08:31.187Z,1.43
2017-11-30T09:11:03.740Z,1.50
2017-11-30T09:13:36.282Z,1.43
2017-11-30T09:16:08.790Z,1.50
2017-11-30T09:18:42.074Z,1.50
2017-11-30T09:21:14.612Z,1.27
2017-11-30T09:23:47.175Z,1.73
2017-11-30T09:26:19.660Z,1.37
2017-11-30T09:28:52.154Z,1.27
2017-11-30T09:31:24.614Z,1.50
2017-11-30T09:33:57.046Z,1.30
2017-11-30T09:36:29.575Z,1.30
2017-11-30T09:39:02.130Z,1.43
2017-11-30T09:41:34.633Z,1.77
2017-11-30T09:44:07.134Z,1.60
2017-11-30T09:46:39.638Z,1.37
2017-11-30T09:49:12.978Z,1.30
2017-11-30T09:51:46.269Z,1.33
2017-11-30T09:54:18.697Z,1.20
2017-11-30T09:56:51.322Z,1.20
2017-11-30T09:59:23.882Z,1.30
2017-11-30T10:01:56.358Z,1.20
2017-11-30T10:04:28.870Z,1.60
2017-11-30T10:07:01.431Z,1.43
2017-11-30T10:09:33.896Z,1.27
2017-11-30T10:12:06.459Z,1.30
2017-11-30T10:14:38.875Z,1.50
2017-11-30T10:17:11.353Z,1.37
2017-11-30T10:19:44.686Z,1.67
2017-11-30T10:22:17.222Z,1.33
2017-11-30T10:24:49.771Z,1.60
2017-11-30T10:27:22.303Z,1.30
2017-11-30T10:29:55.602Z,1.70
2017-11-30T10:32:28.103Z,1.67
2017-11-30T10:35:00.683Z,1.30
2017-11-30T10:37:33.219Z,1.33
2017-11-30T10:40:05.838Z,1.37
2017-11-30T10:42:38.303Z,1.90
2017-11-30T10:45:10.880Z,1.33
2017-11-30T10:47:43.451Z,1.30
2017-11-30T10:50:16.019Z,1.43
2017-11-30T10:52:48.533Z,1.60
2017-11-30T10:55:21.070Z,1.20
2017-11-30T10:57:53.655Z,1.37
2017-11-30T11:00:26.927Z,1.00
2017-11-30T11:02:59.455Z,1.67
2017-11-30T11:05:32.045Z,1.30
2017-11-30T11:08:04.530Z,1.57
2017-11-30T11:10:37.838Z,1.07
2017-11-30T11:13:10.266Z,1.40
2017-11-30T11:15:43.602Z,1.70
2017-11-30T11:18:16.090Z,1.13
2017-11-30T11:20:49.386Z,1.33
2017-11-30T11:23:21.855Z,1.47
2017-11-30T11:25:54.406Z,1.27
2017-11-30T11:28:26.882Z,1.10
2017-11-30T11:30:59.442Z,1.03
2017-11-30T11:33:31.914Z,1.37
2017-11-30T11:36:04.394Z,2.00
2017-11-30T11:38:37.583Z,1.50
2017-11-30T11:41:10.217Z,1.10
2017-11-30T11:43:42.751Z,1.03
2017-11-30T11:46:15.218Z,1.40
2017-11-30T11:48:47.735Z,1.10
2017-11-30T11:51:20.103Z,1.03
2017-11-30T11:53:52.635Z,1.20
2017-11-30T11:56:26.065Z,1.63
2017-11-30T11:58:59.419Z,1.00
2017-11-30T12:01:31.990Z,1.17
2017-11-30T12:04:04.461Z,1.40
2017-11-30T12:06:36.842Z,1.10
2017-11-30T12:09:09.415Z,1.63
2017-11-30T12:11:41.961Z,1.00
2017-11-30T12:14:14.490Z,1.33
2017-11-30T12:16:47.086Z,1.20
2017-11-30T12:19:19.673Z,1.20
2017-11-30T12:21:52.950Z,1.00
2017-11-30T12:24:25.438Z,1.30
2017-11-30T12:26:58.012Z,1.90
2017-11-30T12:29:30.470Z,1.60
2017-11-30T12:32:03.742Z,1.33
2017-11-30T12:34:36.229Z,1.73
2017-11-30T12:37:08.823Z,1.37
2017-11-30T12:39:41.320Z,1.53
2017-11-30T12:42:14.090Z,1.13
2017-11-30T12:44:47.436Z,1.20
2017-11-30T12:47:19.921Z,1.23
2017-11-30T12:49:52.490Z,1.30
2017-11-30T12:52:24.987Z,1.53
2017-11-30T12:54:57.428Z,1.77
2017-11-30T12:57:30.089Z,1.20
2017-11-30T13:00:02.563Z,1.33
2017-11-30T13:02:35.865Z,1.70
2017-11-30T13:05:08.352Z,1.50
2017-11-30T13:07:40.913Z,1.30
2017-11-30T13:10:13.508Z,1.50
2017-11-30T13:12:46.070Z,2.10
2017-11-30T13:15:18.662Z,1.53
2017-11-30T13:17:51.202Z,1.30
2017-11-30T13:20:24.516Z,1.20
2017-11-30T13:22:56.976Z,1.30
2017-11-30T13:25:29.506Z,1.30
2017-11-30T13:28:02.041Z,0.93
2017-11-30T13:30:35.400Z,1.00
2017-11-30T13:33:07.970Z,1.20
2017-11-30T13:35:41.312Z,1.20
2017-11-30T13:38:13.823Z,1.23
2017-11-30T13:40:46.301Z,1.10
2017-11-30T13:43:18.981Z,1.40
2017-11-30T13:45:51.511Z,1.20
2017-11-30T13:48:24.118Z,1.17
2017-11-30T13:50:56.668Z,1.30
2017-11-30T13:53:29.912Z,1.60
2017-11-30T13:56:02.429Z,1.20
2017-11-30T13:58:34.976Z,1.80
2017-11-30T14:01:07.514Z,1.30
2017-11-30T14:03:40.033Z,1.30
2017-11-30T14:06:13.316Z,1.23
2017-11-30T14:08:45.797Z,1.13
2017-11-30T14:11:19.171Z,1.17
2017-11-30T14:13:51.710Z,1.00
2017-11-30T14:16:24.276Z,1.07
2017-11-30T14:18:56.849Z,1.23
2017-11-30T14:21:29.420Z,1.13
2017-11-30T14:24:02.009Z,1.00
2017-11-30T14:26:35.340Z,1.63
2017-11-30T14:29:07.837Z,1.53
2017-11-30T14:31:40.411Z,1.20
2017-11-30T14:34:12.945Z,1.20
2017-11-30T14:36:46.256Z,1.10
2017-11-30T14:39:18.757Z,1.20
2017-11-30T14:41:51.338Z,1.13
2017-11-30T14:44:23.841Z,1.17
2017-11-30T14:46:56.397Z,1.43
2017-11-30T14:49:29.690Z,1.20
2017-11-30T14:52:02.192Z,1.20
2017-11-30T14:54:34.765Z,3.37
2017-11-30T14:57:07.212Z,1.40
2017-11-30T14:59:39.762Z,1.30
2017-11-30T15:02:12.260Z,1.17
2017-11-30T15:04:44.829Z,1.33
2017-11-30T15:07:17.417Z,1.30
2017-11-30T15:09:49.900Z,1.30
2017-11-30T15:12:22.424Z,1.40
2017-11-30T15:14:55.005Z,1.30
2017-11-30T15:17:27.504Z,1.03
2017-11-30T15:20:00.053Z,1.47
2017-11-30T15:22:33.328Z,1.40
2017-11-30T15:25:05.924Z,1.57
2017-11-30T15:27:38.505Z,1.27
2017-11-30T15:30:11.050Z,1.53
2017-11-30T15:32:43.577Z,1.70
2017-11-30T15:35:16.082Z,1.10
2017-11-30T15:37:49.329Z,1.37
2017-11-30T15:40:22.629Z,2.30
2017-11-30T15:42:55.153Z,1.20
2017-11-30T15:45:28.497Z,1.70
2017-11-30T15:48:01.014Z,0.90
2017-11-30T15:50:33.632Z,1.20
2017-11-30T15:53:06.914Z,1.30
2017-11-30T15:55:39.453Z,1.30
2017-11-30T15:58:11.933Z,1.30
2017-11-30T16:00:44.531Z,1.37
2017-11-30T16:03:17.037Z,1.47
2017-11-30T16:05:49.565Z,1.33
2017-11-30T16:08:22.088Z,1.30
2017-11-30T16:10:54.638Z,1.20
2017-11-30T16:13:27.102Z,1.37
2017-11-30T16:15:59.643Z,1.20
2017-11-30T16:18:32.139Z,1.20
2017-11-30T16:21:04.665Z,1.40
2017-11-30T16:23:37.135Z,1.13
2017-11-30T16:26:09.622Z,1.23
2017-11-30T16:28:42.860Z,1.60
2017-11-30T16:31:15.324Z,1.30
2017-11-30T16:33:48.620Z,1.50
2017-11-30T16:36:21.942Z,1.40
2017-11-30T16:38:54.418Z,1.50
2017-11-30T16:41:27.041Z,1.53
2017-11-30T16:43:59.549Z,1.10
2017-11-30T16:46:32.757Z,1.63
2017-11-30T16:49:06.032Z,1.17
2017-11-30T16:51:38.532Z,1.63
2017-11-30T16:54:11.113Z,1.57
2017-11-30T16:56:43.649Z,1.70
2017-11-30T16:59:17.055Z,1.73
2017-11-30T17:01:49.576Z,3.07
2017-11-30T17:04:22.823Z,1.50
2017-11-30T17:06:55.204Z,1.63
2017-11-30T17:09:27.741Z,1.20
2017-11-30T17:12:01.074Z,1.57
2017-11-30T17:14:33.637Z,1.37
2017-11-30T17:17:06.172Z,1.33
2017-11-30T17:19:38.706Z,1.57
2017-11-30T17:22:11.273Z,1.67
2017-11-30T17:24:44.544Z,1.40
2017-11-30T17:27:16.996Z,1.30
2017-11-30T17:29:49.393Z,1.50
2017-11-30T17:32:22.048Z,1.40
2017-11-30T17:34:54.664Z,1.37
2017-11-30T17:37:27.348Z,1.87
2017-11-30T17:40:00.600Z,2.67
2017-11-30T17:42:33.922Z,1.70
2017-11-30T17:45:07.199Z,1.60
2017-11-30T17:47:39.748Z,1.60
2017-11-30T17:50:12.337Z,1.63
2017-11-30T17:52:44.880Z,1.23
2017-11-30T17:55:17.465Z,1.73
2017-11-30T17:57:49.925Z,1.77
2017-11-30T18:00:22.436Z,1.83
2017-11-30T18:02:55.092Z,1.80
2017-11-30T18:05:28.424Z,1.63
2017-11-30T18:08:00.988Z,3.53
2017-11-30T18:10:34.277Z,1.83
2017-11-30T18:13:06.648Z,1.87
2017-11-30T18:15:39.229Z,1.80
2017-11-30T18:18:11.669Z,1.57
2017-11-30T18:20:44.885Z,1.80
2017-11-30T18:23:17.227Z,1.80
2017-11-30T18:25:49.809Z,1.50
2017-11-30T18:28:22.514Z,2.17
2017-11-30T18:30:54.861Z,1.90
2017-11-30T18:33:27.466Z,2.10
2017-11-30T18:36:00.333Z,2.20
2017-11-30T18:38:33.780Z,2.27
2017-11-30T18:41:06.316Z,2.90
2017-11-30T18:43:38.890Z,2.20
2017-11-30T18:46:11.390Z,2.00
2017-11-30T18:48:44.785Z,2.10
2017-11-30T18:51:17.381Z,2.13
2017-11-30T18:53:49.876Z,2.10
2017-11-30T18:56:22.464Z,2.20
2017-11-30T18:58:55.009Z,2.13
2017-11-30T19:01:28.256Z,2.70
2017-11-30T19:04:00.800Z,2.80
2017-11-30T19:06:33.229Z,2.73
2017-11-30T19:09:05.825Z,2.50
2017-11-30T19:11:38.406Z,3.20
2017-11-30T19:14:10.917Z,2.63
2017-11-30T19:16:44.327Z,1.97
2017-11-30T19:19:16.849Z,2.77
2017-11-30T19:21:49.393Z,3.00
2017-11-30T19:24:21.989Z,2.40
2017-11-30T19:26:54.587Z,3.03
2017-11-30T19:29:27.129Z,2.20
2017-11-30T19:31:59.685Z,1.97
2017-11-30T19:34:32.321Z,2.40
2017-11-30T19:37:04.827Z,2.43
2017-11-30T19:39:37.317Z,2.40
2017-11-30T19:42:09.961Z,2.50
2017-11-30T19:44:42.396Z,2.70
2017-11-30T19:47:15.712Z,2.10
2017-11-30T19:49:48.277Z,2.80
2017-11-30T19:52:20.858Z,2.73
2017-11-30T19:54:53.430Z,2.40
2017-11-30T19:57:26.756Z,7.77
2017-11-30T19:59:59.261Z,3.33
2017-11-30T20:02:31.793Z,2.60
2017-11-30T20:05:04.313Z,2.17
2017-11-30T20:07:37.569Z,2.40
2017-11-30T20:10:10.163Z,2.60
2017-11-30T20:12:42.677Z,2.17
2017-11-30T20:15:16.042Z,2.43
2017-11-30T20:17:48.509Z,1.93
2017-11-30T20:20:21.897Z,2.80
2017-11-30T20:22:54.369Z,2.47
2017-11-30T20:25:26.813Z,2.57
2017-11-30T20:28:00.850Z,2.83
2017-11-30T20:30:33.486Z,2.20
2017-11-30T20:33:05.965Z,2.67
2017-11-30T20:35:38.348Z,3.30
2017-11-30T20:38:10.921Z,2.37
2017-11-30T20:40:43.473Z,2.60
2017-11-30T20:43:16.013Z,2.30
2017-11-30T20:45:48.613Z,2.97
2017-11-30T20:48:21.019Z,2.50
2017-11-30T20:50:53.533Z,2.30
2017-11-30T20:53:26.793Z,2.50
2017-11-30T20:56:00.117Z,3.10
2017-11-30T20:58:32.633Z,2.10
2017-11-30T21:01:05.096Z,2.90
2017-11-30T21:03:37.637Z,2.13
2017-11-30T21:06:10.217Z,2.40
2017-11-30T21:08:42.693Z,2.33
2017-11-30T21:11:15.276Z,2.47
2017-11-30T21:13:48.621Z,2.77
2017-11-30T21:16:21.945Z,3.10
2017-11-30T21:18:54.538Z,2.33
2017-11-30T21:21:28.661Z,2.53
2017-11-30T21:24:01.224Z,2.70
2017-11-30T21:26:33.781Z,4.40
2017-11-30T21:29:06.401Z,2.70
2017-11-30T21:31:38.939Z,2.30
2017-11-30T21:34:11.417Z,2.60
2017-11-30T21:36:43.777Z,2.33
2017-11-30T21:39:16.361Z,3.23
2017-11-30T21:41:49.664Z,2.17
2017-11-30T21:44:22.141Z,2.50
2017-11-30T21:46:54.800Z,3.40
2017-11-30T21:49:27.300Z,2.40
2017-11-30T21:51:59.746Z,2.50
2017-11-30T21:54:33.040Z,1.90
2017-11-30T21:57:05.516Z,2.20
2017-11-30T21:59:37.984Z,2.80
2017-11-30T22:02:11.353Z,2.00
2017-11-30T22:04:43.860Z,3.67
2017-11-30T22:07:16.412Z,1.97
2017-11-30T22:09:48.905Z,2.93
2017-11-30T22:12:21.466Z,2.17
2017-11-30T22:14:54.650Z,2.93
2017-11-30T22:17:27.156Z,1.87
2017-11-30T22:19:59.682Z,2.60
2017-11-30T22:22:32.216Z,2.17
2017-11-30T22:25:05.566Z,2.60
2017-11-30T22:27:38.125Z,2.07
2017-11-30T22:30:11.421Z,2.20
2017-11-30T22:32:43.917Z,2.20
2017-11-30T22:35:16.503Z,2.30
2017-11-30T22:37:49.113Z,3.00
2017-11-30T22:40:21.624Z,2.77
2017-11-30T22:42:54.169Z,2.93
2017-11-30T22:45:26.735Z,2.43
2017-11-30T22:47:59.979Z,2.77
2017-11-30T22:50:32.441Z,2.60
2017-11-30T22:53:05.056Z,2.37
2017-11-30T22:55:37.566Z,2.77
2017-11-30T22:58:10.892Z,2.23
2017-11-30T23:00:44.161Z,2.60
2017-11-30T23:03:17.472Z,2.27
2017-11-30T23:05:50.012Z,2.90
2017-11-30T23:08:22.565Z,2.90
2017-11-30T23:10:55.121Z,2.40
2017-11-30T23:13:27.580Z,3.10
2017-11-30T23:16:00.170Z,2.67
2017-11-30T23:18:32.772Z,2.73
2017-11-30T23:21:05.212Z,2.20
2017-11-30T23:23:37.814Z,1.97
2017-11-30T23:26:11.055Z,2.77
2017-11-30T23:28:43.549Z,2.20
2017-11-30T23:31:16.920Z,1.97
2017-11-30T23:33:50.225Z,2.70
2017-11-30T23:36:22.709Z,2.77
2017-11-30T23:38:55.209Z,2.40
2017-11-30T23:41:27.749Z,2.40
2017-11-30T23:44:00.317Z,2.10
2017-11-30T23:46:32.861Z,2.27
2017-11-30T23:49:05.310Z,4.33
2017-11-30T23:51:38.662Z,2.10
2017-11-30T23:54:11.182Z,2.60
2017-11-30T23:56:43.778Z,3.30
2017-11-30T23:59:16.347Z,4.63
